Time;durP1;ratioP1;P1;durP2;ratioP2;P2;SDS_P1;SDS_P2;PMS_P1;PMS_P2;Temp;Humidity;BMP_temperature;BMP_pressure;BME280_temperature;BME280_humidity;BME280_pressure;Samples;Min_cycle;Max_cycle;Signal;HPM_P1;HPM_P2
2022/05/01 00:01:38;;;;;;;16.90;10.40;;;;;;;13.85;41.22;100720.47;4835408;28;96929;-81
2022/05/01 00:04:03;;;;;;;17.40;10.15;;;;;;;13.73;41.15;100711.28;4849324;28;98128;-86
2022/05/01 00:06:31;;;;;;;18.35;9.90;;;;;;;13.62;41.83;100699.44;4839836;28;100578;-86
2022/05/01 00:08:57;;;;;;;16.63;9.07;;;;;;;13.64;41.92;100708.13;4856463;28;96910;-84
2022/05/01 00:11:23;;;;;;;17.95;9.73;;;;;;;13.57;42.00;100708.38;4839375;28;97273;-86
2022/05/01 00:13:49;;;;;;;22.65;9.68;;;;;;;13.58;42.19;100707.47;4836514;29;97337;-82
2022/05/01 00:16:14;;;;;;;17.45;9.32;;;;;;;13.57;41.58;100703.09;4868196;28;99048;-85
2022/05/01 00:18:40;;;;;;;18.40;9.50;;;;;;;13.60;41.97;100707.41;4871732;28;98256;-85
2022/05/01 00:21:06;;;;;;;16.38;9.38;;;;;;;13.67;41.54;100708.00;4848649;28;99735;-86
2022/05/01 00:23:31;;;;;;;16.35;9.80;;;;;;;13.59;40.85;100690.72;4856201;28;97385;-86
2022/05/01 00:25:58;;;;;;;14.80;8.98;;;;;;;13.55;41.50;100704.94;4856158;28;98594;-86
2022/05/01 00:28:23;;;;;;;15.95;9.77;;;;;;;13.49;41.68;100705.19;4857389;28;101140;-86
2022/05/01 00:30:50;;;;;;;21.45;10.00;;;;;;;13.38;42.26;100699.50;4871356;28;97115;-85
2022/05/01 00:38:43;;;;;;;20.77;11.68;;;;;;;13.47;42.46;100706.19;4852668;28;101364;-85
2022/05/01 00:41:09;;;;;;;23.02;13.77;;;;;;;13.38;42.62;100694.22;4856315;28;96828;-86
2022/05/01 00:43:57;;;;;;;30.20;18.67;;;;;;;13.39;42.42;100703.00;4857239;28;97355;-85
2022/05/01 00:46:25;;;;;;;34.85;20.13;;;;;;;13.31;42.57;100696.22;4864781;28;97498;-86
2022/05/01 00:48:52;;;;;;;34.95;21.45;;;;;;;13.19;42.27;100669.47;4850011;28;101289;-85
2022/05/01 00:51:20;;;;;;;35.05;22.23;;;;;;;13.26;42.71;100687.63;4874079;28;97341;-84
2022/05/01 00:53:49;;;;;;;33.55;22.23;;;;;;;13.36;42.66;100688.16;4859358;28;97132;-85
2022/05/01 00:56:16;;;;;;;37.80;22.70;;;;;;;13.22;42.63;100666.72;4875135;28;98484;-87
2022/05/01 00:58:43;;;;;;;32.30;21.50;;;;;;;13.21;42.59;100691.38;4849525;28;101575;-85
2022/05/01 01:01:11;;;;;;;32.22;19.38;;;;;;;13.24;43.09;100699.16;4868421;28;97286;-86
2022/05/01 01:03:36;;;;;;;28.08;18.45;;;;;;;13.14;42.70;100696.84;4852997;28;98171;-81
2022/05/01 01:06:02;;;;;;;29.42;17.65;;;;;;;13.01;43.07;100694.75;4852279;28;100953;-86
2022/05/01 01:08:28;;;;;;;27.67;16.23;;;;;;;13.15;43.07;100697.72;4867788;28;102044;-85
2022/05/01 01:10:54;;;;;;;29.33;16.25;;;;;;;13.11;43.44;100699.59;4874073;28;97425;-85
2022/05/01 01:13:29;;;;;;;24.48;14.50;;;;;;;13.04;43.27;100698.13;4870268;28;97196;-85
2022/05/01 01:15:55;;;;;;;26.70;14.63;;;;;;;13.13;42.93;100692.50;4839422;28;100575;-86
2022/05/01 01:18:22;;;;;;;28.20;16.08;;;;;;;13.02;43.68;100689.41;4856467;28;101811;-84
2022/05/01 01:20:48;;;;;;;26.17;15.35;;;;;;;13.07;43.73;100686.63;4845754;28;100501;-85
2022/05/01 01:23:14;;;;;;;26.58;14.80;;;;;;;12.94;44.09;100693.25;4891140;28;97411;-85
2022/05/01 01:25:40;;;;;;;24.33;14.25;;;;;;;12.90;43.88;100701.28;4874279;28;101375;-81
2022/05/01 01:28:07;;;;;;;27.40;14.10;;;;;;;12.93;43.76;100699.47;4859658;28;101633;-86
2022/05/01 01:33:18;;;;;;;26.98;15.68;;;;;;;12.88;43.85;100702.25;4878546;28;97502;-84
2022/05/01 01:35:45;;;;;;;28.52;15.52;;;;;;;12.76;43.94;100682.50;4874416;28;98267;-84
2022/05/01 01:38:11;;;;;;;28.35;15.45;;;;;;;12.80;44.29;100693.78;4867725;28;97744;-85
2022/05/01 01:41:04;;;;;;;27.92;15.88;;;;;;;12.93;44.13;100699.47;4873462;28;97732;-85
2022/05/01 01:43:31;;;;;;;30.48;16.98;;;;;;;12.91;44.07;100697.75;4875132;28;97666;-85
2022/05/01 01:45:57;;;;;;;34.03;20.67;;;;;;;12.75;44.51;100670.25;4873872;28;101655;-86
2022/05/01 01:48:23;;;;;;;38.20;22.38;;;;;;;12.74;44.77;100667.66;4875288;28;100298;-85
2022/05/01 01:50:57;;;;;;;38.17;20.42;;;;;;;12.68;44.26;100682.81;4890733;28;96909;-83
2022/05/01 01:53:23;;;;;;;32.13;18.40;;;;;;;12.73;44.40;100694.94;4871047;28;97119;-83
2022/05/01 01:55:49;;;;;;;31.48;17.90;;;;;;;12.71;44.79;100694.97;4870207;28;97943;-81
2022/05/01 01:58:14;;;;;;;30.10;17.00;;;;;;;12.63;45.19;100691.78;4859215;28;101502;-85
2022/05/01 02:00:40;;;;;;;28.83;15.70;;;;;;;12.77;44.85;100699.16;4890993;28;96740;-80
2022/05/01 02:03:05;;;;;;;27.90;15.45;;;;;;;12.77;44.54;100697.41;4859069;28;97184;-86
2022/05/01 02:05:33;;;;;;;25.95;14.95;;;;;;;12.66;44.93;100689.91;4850308;28;101545;-83
2022/05/01 02:07:58;;;;;;;32.03;17.50;;;;;;;12.76;45.16;100697.44;4855880;28;100768;-85
2022/05/01 02:10:24;;;;;;;33.30;17.98;;;;;;;12.75;45.31;100707.13;4875684;28;97319;-86
2022/05/01 02:12:50;;;;;;;36.92;20.55;;;;;;;12.69;45.52;100697.69;4906170;28;97421;-81
2022/05/01 02:15:17;;;;;;;38.72;21.13;;;;;;;12.61;45.92;100702.38;4879760;28;101182;-85
2022/05/01 02:17:46;;;;;;;32.78;21.35;;;;;;;12.60;46.04;100694.53;4858607;28;102055;-84
2022/05/01 02:20:12;;;;;;;31.30;18.35;;;;;;;12.49;45.65;100701.97;4875077;28;96747;-85
2022/05/01 02:22:42;;;;;;;34.22;18.65;;;;;;;12.36;45.76;100681.34;4858456;28;97179;-80
2022/05/01 02:25:09;;;;;;;33.30;19.77;;;;;;;12.35;45.50;100681.38;4885663;28;97961;-86
2022/05/01 02:27:35;;;;;;;28.33;16.83;;;;;;;12.36;45.74;100678.72;4874069;28;100167;-85
2022/05/01 02:30:01;;;;;;;28.77;15.35;;;;;;;12.35;45.46;100681.38;4860974;28;97425;-86
2022/05/01 02:32:27;;;;;;;25.63;16.65;;;;;;;12.38;45.04;100691.81;4894808;28;97196;-85
2022/05/01 02:34:52;;;;;;;29.17;17.92;;;;;;;12.29;46.08;100679.81;4876901;28;101687;-85
2022/05/01 02:37:18;;;;;;;33.85;20.52;;;;;;;12.10;45.56;100661.19;4877690;28;101229;-85
2022/05/01 02:39:43;;;;;;;38.85;23.77;;;;;;;12.27;45.42;100684.28;4869726;28;98279;-80
2022/05/01 02:42:09;;;;;;;42.20;25.90;;;;;;;12.34;45.25;100680.53;4869179;28;98130;-84
2022/05/01 02:44:34;;;;;;;37.60;24.08;;;;;;;12.28;44.99;100672.00;4876349;28;97990;-84
2022/05/01 02:47:00;;;;;;;32.28;19.40;;;;;;;12.40;44.84;100680.31;4877623;28;101249;-85
2022/05/01 02:49:26;;;;;;;56.65;33.42;;;;;;;12.38;44.89;100673.38;4862106;28;96767;-84
2022/05/01 02:51:53;;;;;;;42.95;28.00;;;;;;;12.21;44.88;100674.81;4877113;28;96987;-85
2022/05/01 02:54:22;;;;;;;38.35;22.38;;;;;;;12.14;45.50;100670.69;4862005;28;101833;-83
2022/05/01 02:56:49;;;;;;;38.80;24.93;;;;;;;12.01;45.86;100666.75;4875882;28;101614;-80
2022/05/01 02:59:18;;;;;;;42.35;28.08;;;;;;;12.10;46.05;100665.59;4890098;28;97443;-82
2022/05/01 03:01:44;;;;;;;42.63;25.92;;;;;;;12.10;45.97;100676.09;4887964;28;96782;-84
2022/05/01 03:04:10;;;;;;;39.00;21.50;;;;;;;11.92;46.18;100651.28;4877717;28;100683;-86
2022/05/01 03:06:36;;;;;;;38.80;22.67;;;;;;;12.09;45.29;100663.88;4894077;28;97403;-86
2022/05/01 03:09:02;;;;;;;46.38;21.05;;;;;;;12.00;46.24;100673.81;4861100;28;97114;-85
2022/05/01 03:11:28;;;;;;;28.45;16.88;;;;;;;12.09;46.35;100664.72;4872523;28;98836;-85
2022/05/01 03:13:54;;;;;;;22.48;13.68;;;;;;;12.07;45.93;100674.47;4860311;28;101712;-85
2022/05/01 03:16:19;;;;;;;22.10;14.02;;;;;;;11.97;45.84;100678.31;4877499;28;98217;-85
2022/05/01 03:24:31;;;;;;;28.75;14.18;;;;;;;11.91;46.50;100678.53;4819039;29;100307;-86
2022/05/01 03:26:57;;;;;;;20.38;12.68;;;;;;;12.06;45.95;100674.50;4868434;28;101068;-85
2022/05/01 03:29:22;;;;;;;21.55;11.65;;;;;;;12.00;46.18;100680.84;4869520;28;97557;-85
2022/05/01 03:31:50;;;;;;;21.75;11.70;;;;;;;11.89;46.43;100675.94;4859747;28;97210;-84
2022/05/01 03:34:17;;;;;;;23.02;12.68;;;;;;;11.91;46.14;100676.75;4876950;28;101608;-83
2022/05/01 03:36:47;;;;;;;20.25;11.15;;;;;;;11.80;46.09;100668.31;4877038;28;98060;-86
2022/05/01 03:39:14;;;;;;;17.75;10.65;;;;;;;11.79;46.27;100670.09;4876987;28;96893;-86
2022/05/01 03:41:42;;;;;;;21.58;10.98;;;;;;;11.76;46.24;100662.31;4876838;28;97737;-85
2022/05/01 03:44:08;;;;;;;19.75;9.82;;;;;;;11.85;46.52;100662.91;4876223;28;100218;-86
2022/05/01 03:46:36;;;;;;;21.73;11.15;;;;;;;11.86;46.75;100677.81;4854083;28;101154;-86
2022/05/01 03:49:03;;;;;;;21.48;10.80;;;;;;;11.72;46.43;100670.34;4875786;28;97840;-84
2022/05/01 03:51:31;;;;;;;22.90;11.35;;;;;;;11.84;46.00;100669.97;4876029;28;97317;-85
2022/05/01 03:53:58;;;;;;;16.17;9.77;;;;;;;11.93;46.34;100671.44;4876780;28;97538;-86
2022/05/01 03:56:24;;;;;;;20.52;10.20;;;;;;;11.88;46.28;100676.84;4876431;28;101230;-84
2022/05/01 03:58:50;;;;;;;17.30;10.55;;;;;;;11.81;46.27;100671.81;4871795;28;100372;-81
2022/05/01 04:01:15;;;;;;;22.02;10.45;;;;;;;11.74;46.90;100679.06;4873217;28;97040;-86
2022/05/01 04:03:41;;;;;;;18.25;10.20;;;;;;;11.71;46.53;100674.75;4892484;28;98051;-85
2022/05/01 04:06:07;;;;;;;19.08;10.07;;;;;;;11.79;46.25;100679.75;4875991;28;97930;-84
2022/05/01 04:08:32;;;;;;;17.27;10.02;;;;;;;11.82;46.33;100677.03;4860770;28;97692;-85
2022/05/01 04:11:00;;;;;;;19.17;10.65;;;;;;;11.81;46.23;100677.97;4875008;28;97432;-82
2022/05/01 04:13:26;;;;;;;24.60;10.80;;;;;;;11.88;46.24;100692.63;4857304;28;101477;-85
2022/05/01 04:15:51;;;;;;;17.90;10.40;;;;;;;11.81;46.50;100685.84;4870920;28;97917;-84
2022/05/01 04:18:17;;;;;;;18.13;10.15;;;;;;;11.79;46.57;100685.03;4891933;28;97128;-85
2022/05/01 04:20:45;;;;;;;18.80;10.07;;;;;;;11.95;45.91;100694.13;4860800;28;97105;-87
2022/05/01 04:23:10;;;;;;;20.38;10.32;;;;;;;12.03;45.67;100687.78;4879589;28;98723;-89
2022/05/01 04:25:36;;;;;;;17.50;9.43;;;;;;;11.97;45.72;100686.22;4860333;28;100983;-87
2022/05/01 04:28:01;;;;;;;18.58;10.13;;;;;;;11.93;45.84;100695.13;4868388;28;97726;-87
2022/05/01 04:30:28;;;;;;;18.40;9.95;;;;;;;11.88;46.49;100683.91;4891269;28;97201;-86
2022/05/01 04:32:56;;;;;;;20.85;10.30;;;;;;;12.05;46.17;100693.84;4875305;28;97200;-85
2022/05/01 04:35:31;;;;;;;18.73;10.52;;;;;;;12.01;46.32;100698.34;4891693;28;97932;-85
2022/05/01 04:38:05;;;;;;;18.33;9.60;;;;;;;12.05;46.23;100693.84;4875530;28;97482;-85
2022/05/01 04:40:40;;;;;;;16.83;9.40;;;;;;;12.26;45.35;100684.34;4868458;28;97549;-85
2022/05/01 04:43:11;;;;;;;20.63;9.38;;;;;;;12.42;45.07;100694.28;4874654;28;101553;-84
2022/05/01 04:45:38;;;;;;;14.98;8.82;;;;;;;12.51;45.19;100698.38;4878073;28;98207;-86
2022/05/01 04:48:05;;;;;;;18.80;9.32;;;;;;;12.48;44.92;100695.84;4857206;28;97548;-87
2022/05/01 04:50:31;;;;;;;14.52;8.57;;;;;;;12.55;44.42;100704.38;4866782;28;97477;-86
2022/05/01 04:52:57;;;;;;;15.68;9.55;;;;;;;12.64;44.80;100693.50;4848140;28;101436;-86
2022/05/01 04:55:23;;;;;;;17.20;9.48;;;;;;;12.69;44.20;100697.69;4889878;28;100987;-85
2022/05/01 04:57:49;;;;;;;21.63;9.73;;;;;;;12.69;43.83;100704.72;4885872;28;97347;-80
2022/05/01 05:00:18;;;;;;;15.88;8.35;;;;;;;12.66;43.81;100699.56;4875512;28;98154;-88
2022/05/01 05:02:46;;;;;;;17.55;8.20;;;;;;;12.76;43.94;100703.56;4864534;28;98376;-87
2022/05/01 05:05:12;;;;;;;13.65;8.68;;;;;;;12.91;43.57;100703.03;4858677;28;100017;-85
2022/05/01 05:07:38;;;;;;;18.25;9.10;;;;;;;13.03;43.46;100699.06;4884498;28;97092;-84
2022/05/01 05:10:06;;;;;;;17.85;8.80;;;;;;;13.10;43.12;100691.78;4874989;28;97255;-85
2022/05/01 05:12:32;;;;;;;13.88;8.20;;;;;;;12.92;42.29;100661.72;4871835;28;101967;-84
2022/05/01 05:15:00;;;;;;;15.00;8.88;;;;;;;13.24;42.40;100691.25;4858104;28;100699;-87
2022/05/01 05:17:27;;;;;;;13.63;8.65;;;;;;;13.20;42.38;100693.13;4841012;28;101678;-84
2022/05/01 05:19:54;;;;;;;12.52;7.75;;;;;;;13.12;42.88;100688.16;4875509;28;97341;-86
2022/05/01 05:22:20;;;;;;;15.38;8.65;;;;;;;13.06;43.11;100698.06;4872550;28;98195;-85
2022/05/01 05:24:45;;;;;;;12.10;8.15;;;;;;;13.13;43.52;100695.13;4872867;28;100093;-84
2022/05/01 05:27:11;;;;;;;16.33;9.02;;;;;;;13.42;42.83;100703.72;4859802;28;96685;-84
2022/05/01 05:29:38;;;;;;;16.38;8.68;;;;;;;13.60;42.46;100710.03;4883478;28;98525;-80
2022/05/01 05:32:04;;;;;;;20.52;9.05;;;;;;;13.66;42.08;100703.66;4856481;28;101904;-84
2022/05/01 05:34:30;;;;;;;15.57;9.05;;;;;;;13.65;42.12;100710.72;4844780;28;101436;-84
2022/05/01 05:36:56;;;;;;;18.02;8.40;;;;;;;13.61;41.70;100698.56;4873495;28;96738;-84
2022/05/01 05:39:21;;;;;;;14.68;8.98;;;;;;;13.78;41.14;100718.97;4862564;28;96903;-85
2022/05/01 05:41:47;;;;;;;19.33;8.52;;;;;;;13.96;41.15;100706.78;4856494;28;97440;-84
2022/05/01 05:44:12;;;;;;;13.43;8.30;;;;;;;14.17;40.82;100723.53;4859928;28;98155;-85
2022/05/01 05:46:38;;;;;;;15.07;8.00;;;;;;;14.30;41.45;100722.06;4853314;28;97608;-86
2022/05/01 05:49:04;;;;;;;17.52;7.97;;;;;;;14.58;40.50;100726.19;4838974;28;97430;-84
2022/05/01 05:51:29;;;;;;;14.45;8.52;;;;;;;14.76;40.87;100725.38;4855024;28;99351;-83
2022/05/01 05:53:56;;;;;;;13.23;7.90;;;;;;;14.85;40.70;100718.81;4845760;28;101588;-84
2022/05/01 05:56:22;;;;;;;14.27;8.13;;;;;;;15.10;40.28;100722.03;4844496;28;97315;-83
2022/05/01 05:58:48;;;;;;;12.82;7.80;;;;;;;15.27;40.15;100710.69;4837906;28;97303;-84
2022/05/01 06:01:13;;;;;;;14.10;8.43;;;;;;;15.46;39.51;100707.16;4855791;28;98708;-85
2022/05/01 06:03:40;;;;;;;12.73;8.13;;;;;;;15.51;39.07;100711.28;4874042;28;98220;-84
2022/05/01 06:06:06;;;;;;;17.50;8.23;;;;;;;15.63;39.12;100688.66;4855210;29;98744;-85
2022/05/01 06:12:12;;;;;;;12.07;8.00;;;;;;;15.61;38.97;100722.28;4853148;28;99808;-85
2022/05/01 06:14:39;;;;;;;13.77;8.43;;;;;;;15.89;38.25;100700.66;4841288;28;101555;-87
2022/05/01 06:17:05;;;;;;;16.90;8.15;;;;;;;16.24;37.72;100717.38;4854527;28;96998;-86
2022/05/01 06:19:30;;;;;;;15.40;8.20;;;;;;;16.63;37.17;100720.69;4856964;28;97481;-86
2022/05/01 06:21:56;;;;;;;16.73;8.48;;;;;;;16.96;36.99;100724.22;4871947;28;98505;-87
2022/05/01 06:24:21;;;;;;;19.30;10.68;;;;;;;17.10;35.95;100720.78;4865968;28;98039;-87
2022/05/01 06:26:47;;;;;;;13.85;9.43;;;;;;;17.04;36.07;100723.78;4859414;28;97369;-86
2022/05/01 06:29:12;;;;;;;16.60;9.90;;;;;;;17.31;36.02;100723.25;4853802;28;97680;-87
2022/05/01 06:31:39;;;;;;;17.33;10.95;;;;;;;17.40;35.52;100723.56;4853433;29;101517;-87
2022/05/01 06:34:04;;;;;;;17.83;10.57;;;;;;;17.34;35.53;100739.84;4868925;28;98207;-87
2022/05/01 06:36:30;;;;;;;17.27;10.75;;;;;;;17.35;35.89;100725.63;4857009;28;97382;-88
2022/05/01 06:38:56;;;;;;;16.45;9.63;;;;;;;17.57;35.98;100729.69;4856767;28;96908;-87
2022/05/01 06:41:22;;;;;;;16.27;9.65;;;;;;;17.85;35.82;100719.25;4827356;28;100745;-84
2022/05/01 06:43:47;;;;;;;12.30;9.35;;;;;;;18.21;35.12;100728.69;4840277;28;99998;-86
2022/05/01 06:46:13;;;;;;;15.35;10.25;;;;;;;18.51;34.86;100722.47;4879219;28;97185;-87
2022/05/01 06:48:38;;;;;;;15.60;9.75;;;;;;;18.71;34.48;100722.09;4880175;28;97597;-87
2022/05/01 06:51:04;;;;;;;19.25;11.77;;;;;;;18.92;33.29;100721.75;4881681;28;101064;-87
2022/05/01 06:53:30;;;;;;;17.00;10.27;;;;;;;19.02;33.90;100714.88;4902726;28;98115;-83
2022/05/01 06:55:56;;;;;;;15.10;10.93;;;;;;;18.91;33.86;100718.25;4899770;28;96804;-81
2022/05/01 06:58:22;;;;;;;21.50;10.98;;;;;;;18.78;33.78;100722.59;4882729;28;96821;-87
2022/05/01 07:00:49;;;;;;;15.00;10.00;;;;;;;19.10;34.12;100723.25;4862393;28;100777;-87
2022/05/01 07:03:14;;;;;;;15.85;9.43;;;;;;;19.25;34.02;100726.72;4859076;28;100734;-87
2022/05/01 07:05:40;;;;;;;15.63;9.88;;;;;;;19.34;34.27;100704.84;4882780;28;98040;-86
2022/05/01 07:08:05;;;;;;;16.92;10.00;;;;;;;19.77;33.41;100726.03;4868788;28;98171;-86
2022/05/01 07:10:31;;;;;;;15.82;10.20;;;;;;;20.21;32.89;100716.88;4855733;28;101679;-85
2022/05/01 07:12:56;;;;;;;16.23;9.00;;;;;;;20.60;32.48;100715.16;4892377;28;100067;-87
2022/05/01 07:15:22;;;;;;;19.52;10.27;;;;;;;20.54;32.21;100724.41;4860811;28;97373;-87
2022/05/01 07:17:47;;;;;;;15.95;10.30;;;;;;;20.70;31.78;100707.34;4888393;28;97332;-87
2022/05/01 07:20:13;;;;;;;17.17;11.15;;;;;;;20.19;31.51;100716.16;4870857;28;100110;-83
2022/05/01 07:22:39;;;;;;;16.92;10.23;;;;;;;20.01;32.03;100715.59;4891720;28;98022;-84
2022/05/01 07:25:05;;;;;;;15.50;10.10;;;;;;;19.82;32.73;100715.09;4871372;28;97458;-85
2022/05/01 07:27:30;;;;;;;16.45;10.73;;;;;;;20.12;32.54;100718.34;4875753;28;98578;-85
2022/05/01 07:29:56;;;;;;;17.77;10.65;;;;;;;20.02;32.21;100714.63;4876670;28;100859;-84
2022/05/01 07:32:21;;;;;;;14.65;9.68;;;;;;;20.31;32.05;100722.47;4868124;28;101560;-84
2022/05/01 07:34:47;;;;;;;15.93;10.55;;;;;;;19.98;32.53;100728.25;4883309;28;97978;-83
2022/05/01 07:37:14;;;;;;;14.45;9.43;;;;;;;19.55;33.24;100723.06;4872505;28;97463;-83
2022/05/01 07:39:40;;;;;;;14.40;9.80;;;;;;;19.47;33.39;100706.75;4869949;28;101102;-83
2022/05/01 07:42:06;;;;;;;17.88;10.18;;;;;;;19.53;33.02;100719.66;4868199;28;97937;-86
2022/05/01 07:44:32;;;;;;;14.48;9.68;;;;;;;19.43;34.01;100722.03;4861155;28;97230;-83
2022/05/01 07:46:58;;;;;;;14.77;9.18;;;;;;;19.82;34.17;100712.44;4882815;28;97115;-84
2022/05/01 07:49:24;;;;;;;13.05;8.32;;;;;;;20.54;33.92;100713.75;4851938;28;101278;-84
2022/05/01 07:51:50;;;;;;;20.05;10.15;;;;;;;20.90;31.85;100697.94;4860945;28;101289;-84
2022/05/01 07:54:15;;;;;;;12.30;9.32;;;;;;;21.21;32.19;100707.25;4864907;28;96916;-84
2022/05/01 07:56:41;;;;;;;16.45;9.90;;;;;;;;;;4868181;28;96735;-85
2022/05/01 07:59:08;;;;;;;15.38;9.60;;;;;;;21.77;31.18;100704.06;4910960;28;98160;-85
2022/05/01 08:01:34;;;;;;;21.25;9.90;;;;;;;21.66;31.46;100708.38;4892515;28;98451;-84
2022/05/01 08:06:44;;;;;;;17.80;9.48;;;;;;;21.89;31.04;100704.00;4896449;28;96752;-81
2022/05/01 08:09:09;;;;;;;17.95;9.10;;;;;;;22.26;30.84;100697.72;4892186;28;98557;-79
2022/05/01 08:11:35;;;;;;;13.80;8.95;;;;;;;22.50;30.57;100701.16;4887976;28;97432;-81
2022/05/01 08:14:01;;;;;;;15.27;10.20;;;;;;;22.63;29.98;100708.19;4864595;28;97136;-81
2022/05/01 08:16:26;;;;;;;15.60;9.23;;;;;;;22.73;29.92;100696.66;4861293;28;98366;-81
2022/05/01 08:21:36;;;;;;;16.80;9.35;;;;;;;23.25;29.65;100680.97;4885604;28;97889;-79
2022/05/01 08:24:03;;;;;;;13.63;9.35;;;;;;;23.42;29.48;100688.47;4862145;28;96809;-87
2022/05/01 08:26:31;;;;;;;15.50;9.23;;;;;;;23.53;29.02;100668.81;4871983;28;99662;-77
2022/05/01 08:28:57;;;;;;;15.55;9.30;;;;;;;24.05;28.67;100685.06;4889589;28;97579;-79
2022/05/01 08:31:23;;;;;;;17.23;9.82;;;;;;;24.30;28.28;100663.22;4876602;28;98257;-81
2022/05/01 08:33:48;;;;;;;14.02;9.10;;;;;;;24.38;28.31;100679.50;4876147;28;96990;-77
2022/05/01 08:36:14;;;;;;;16.27;9.45;;;;;;;24.61;27.53;100688.28;4876044;28;96889;-81
2022/05/01 08:38:40;;;;;;;13.00;9.73;;;;;;;24.87;28.02;100673.50;4867755;28;101505;-83
2022/05/01 08:41:07;;;;;;;13.38;8.85;;;;;;;24.45;27.92;100682.53;4858517;28;100025;-82
2022/05/01 08:43:33;;;;;;;13.00;8.20;;;;;;;24.36;28.00;100678.78;4876302;28;97310;-82
2022/05/01 08:46:32;;;;;;;14.40;8.52;;;;;;;25.11;27.47;100684.78;4875718;28;97459;-82
2022/05/01 08:49:04;;;;;;;12.25;8.45;;;;;;;25.26;27.06;100651.19;4887891;28;98644;-82
2022/05/01 08:51:35;;;;;;;13.05;8.40;;;;;;;25.56;27.34;100670.03;4868885;28;98426;-83
2022/05/01 08:54:04;;;;;;;15.75;8.82;;;;;;;25.78;27.78;100667.06;4866263;28;98177;-78
2022/05/01 08:56:34;;;;;;;14.63;8.00;;;;;;;25.63;26.15;100668.50;4850826;28;97745;-77
2022/05/01 08:59:11;;;;;;;10.97;7.33;;;;;;;25.97;25.80;100669.75;4870561;28;101491;-77
2022/05/01 09:01:38;;;;;;;14.68;7.93;;;;;;;25.40;26.10;100684.03;4878431;28;101656;-76
2022/05/01 09:04:08;;;;;;;11.32;7.50;;;;;;;25.58;26.15;100668.06;4870637;28;97801;-77
2022/05/01 09:06:35;;;;;;;11.88;7.75;;;;;;;25.63;25.76;100661.28;4855038;28;98333;-77
2022/05/01 09:09:05;;;;;;;12.10;7.53;;;;;;;26.02;26.08;100672.03;4892459;28;100989;-76
2022/05/01 09:14:26;;;;;;;11.77;7.55;;;;;;;26.05;25.58;100663.66;4804238;28;97701;-77
2022/05/01 09:17:14;;;;;;;9.57;7.43;;;;;;;25.99;25.22;100666.09;4874283;28;97518;-75
2022/05/01 09:19:40;;;;;;;10.05;7.68;;;;;;;25.90;25.85;100657.03;4892103;28;101787;-76
2022/05/01 09:22:06;;;;;;;10.52;7.70;;;;;;;25.73;25.53;100654.03;4886995;28;98413;-73
2022/05/01 09:24:32;;;;;;;13.48;8.00;;;;;;;25.45;26.56;100662.94;4875147;28;97560;-74
2022/05/01 09:26:59;;;;;;;12.65;7.53;;;;;;;25.59;25.80;100638.34;4880690;28;97535;-74
2022/05/01 09:29:32;;;;;;;12.55;7.35;;;;;;;25.90;25.70;100657.88;4862244;28;101364;-79
2022/05/01 09:32:00;;;;;;;11.18;7.55;;;;;;;25.83;25.84;100651.41;4851106;28;101376;-78
2022/05/01 09:34:29;;;;;;;13.15;7.53;;;;;;;25.99;25.84;100660.72;4859111;28;97334;-79
2022/05/01 09:36:56;;;;;;;9.48;7.25;;;;;;;25.67;25.26;100648.38;4869094;28;97607;-77
2022/05/01 09:39:27;;;;;;;9.40;6.38;;;;;;;25.62;25.84;100654.16;4854438;28;99096;-80
2022/05/01 09:41:53;;;;;;;10.13;7.55;;;;;;;25.48;26.08;100652.78;4880269;28;97993;-82
2022/05/01 09:44:20;;;;;;;11.55;7.47;;;;;;;25.78;26.70;100650.09;4875369;28;97925;-79
2022/05/01 09:46:47;;;;;;;7.03;5.60;;;;;;;25.91;25.06;100647.97;4906179;28;97364;-77
2022/05/01 09:49:15;;;;;;;10.30;5.60;;;;;;;25.71;24.26;100625.59;4890349;28;101567;-77
2022/05/01 09:51:51;;;;;;;8.88;6.63;;;;;;;25.60;25.12;100644.56;4864310;28;98364;-77
2022/05/01 09:54:19;;;;;;;10.15;7.10;;;;;;;25.23;25.83;100643.41;4865078;28;97846;-77
2022/05/01 09:56:54;;;;;;;9.95;7.13;;;;;;;24.33;26.72;100652.22;4864381;28;96968;-77
2022/05/01 09:59:22;;;;;;;8.70;6.53;;;;;;;23.99;26.60;100648.88;4887450;28;99298;-77
2022/05/01 10:02:04;;;;;;;10.18;5.82;;;;;;;23.58;26.16;100630.94;4874846;28;97888;-79
2022/05/01 10:04:31;;;;;;;9.20;5.90;;;;;;;23.60;25.99;100640.53;4870946;28;97599;-78
2022/05/01 10:06:58;;;;;;;8.18;4.78;;;;;;;23.83;25.88;100624.41;4891467;28;97444;-79
2022/05/01 10:09:25;;;;;;;12.52;6.22;;;;;;;23.84;26.07;100640.31;4852009;28;100622;-79
2022/05/01 10:11:54;;;;;;;9.10;5.63;;;;;;;23.67;25.99;100622.09;4871760;28;102083;-77
2022/05/01 10:14:23;;;;;;;10.02;6.15;;;;;;;23.35;26.36;100620.28;4853485;28;97347;-79
2022/05/01 10:16:50;;;;;;;11.02;5.68;;;;;;;23.37;26.86;100628.22;4874928;28;97672;-78
2022/05/01 10:19:19;;;;;;;6.80;5.15;;;;;;;23.46;27.17;100627.44;4863821;28;100913;-81
2022/05/01 10:21:50;;;;;;;8.35;5.82;;;;;;;23.23;27.22;100627.50;4870990;28;98472;-77
2022/05/01 10:24:17;;;;;;;7.63;5.47;;;;;;;23.13;26.45;100628.41;4856317;28;97539;-80
2022/05/01 10:27:06;;;;;;;5.80;4.57;;;;;;;22.95;26.46;100623.59;4891163;28;96939;-79
2022/05/01 10:32:54;;;;;;;8.80;5.15;;;;;;;22.87;27.86;100617.97;4893172;28;101179;-78
2022/05/01 10:35:32;;;;;;;6.93;5.15;;;;;;;22.72;27.53;100619.19;4910828;28;96705;-75
2022/05/01 10:38:23;;;;;;;8.32;5.70;;;;;;;22.64;27.52;100613.63;4871041;28;99910;-74
2022/05/01 10:40:56;;;;;;;8.63;5.72;;;;;;;22.59;27.72;100617.50;4893029;28;98761;-73
2022/05/01 10:43:22;;;;;;;9.25;5.55;;;;;;;22.31;27.89;100610.81;4877520;28;99594;-75
2022/05/01 10:45:48;;;;;;;10.32;5.47;;;;;;;22.22;28.21;100611.53;4892767;28;97344;-74
2022/05/01 10:48:17;;;;;;;8.68;5.50;;;;;;;22.31;27.47;100604.59;4893532;28;97389;-75
2022/05/01 10:50:43;;;;;;;8.68;6.25;;;;;;;22.43;28.43;100595.63;4862497;28;101830;-74
2022/05/01 10:53:12;;;;;;;10.25;5.30;;;;;;;22.26;27.87;100588.09;4880553;28;98450;-73
2022/05/01 10:55:42;;;;;;;9.13;4.68;;;;;;;22.35;27.39;100574.84;4876976;28;97017;-76
2022/05/01 10:58:37;;;;;;;6.82;5.38;;;;;;;22.18;27.92;100599.38;4907481;28;97241;-74
2022/05/01 11:01:03;;;;;;;8.70;4.95;;;;;;;22.28;28.56;100597.69;4880440;28;101612;-79
2022/05/01 11:03:35;;;;;;;7.05;4.40;;;;;;;22.43;29.25;100594.75;4878145;28;98526;-74
2022/05/01 11:06:04;;;;;;;8.60;5.07;;;;;;;22.36;29.12;100594.41;4859520;28;97277;-79
2022/05/01 11:08:36;;;;;;;7.88;5.10;;;;;;;22.20;28.70;100570.72;4907825;28;98062;-74
2022/05/01 11:11:05;;;;;;;9.80;5.38;;;;;;;22.24;28.83;100585.53;4851980;28;99856;-76
2022/05/01 11:13:36;;;;;;;6.90;5.75;;;;;;;21.72;28.71;100570.00;4877512;28;100903;-74
2022/05/01 11:16:03;;;;;;;6.60;5.43;;;;;;;21.61;28.48;100573.47;4877263;28;97338;-80
2022/05/01 11:18:29;;;;;;;10.65;5.75;;;;;;;21.72;28.84;100567.31;4878169;28;97192;-74
2022/05/01 11:21:15;;;;;;;8.07;5.70;;;;;;;21.40;28.42;100587.47;4859892;28;101784;-74
2022/05/01 11:23:43;;;;;;;7.80;5.10;;;;;;;21.48;28.36;100587.75;4865841;28;101569;-75
2022/05/01 11:26:17;;;;;;;10.45;6.28;;;;;;;21.43;29.10;100576.56;4862562;28;97699;-76
2022/05/01 11:28:45;;;;;;;7.53;5.30;;;;;;;;;;4890548;28;97361;-78
2022/05/01 11:31:36;;;;;;;8.15;5.22;;;;;;;21.97;29.29;100579.66;4892990;28;100720;-77
2022/05/01 11:34:35;;;;;;;9.27;5.28;;;;;;;22.02;28.63;100582.78;4889595;28;97936;-78
2022/05/01 11:37:06;;;;;;;7.40;4.97;;;;;;;21.93;28.37;100560.31;4833854;28;97755;-77
2022/05/01 11:39:50;;;;;;;10.00;5.60;;;;;;;22.03;28.61;100572.00;4860633;28;97688;-76
2022/05/01 11:42:25;;;;;;;7.35;5.25;;;;;;;22.05;29.18;100569.19;4892118;28;97516;-76
2022/05/01 11:44:52;;;;;;;7.82;5.20;;;;;;;22.09;29.22;100562.66;4883274;28;102029;-77
2022/05/01 11:47:22;;;;;;;8.60;5.32;;;;;;;22.12;28.88;100560.56;4859983;28;97313;-75